createdAt,value
2022-08-26T00:03:06.220Z,65.24
2022-08-26T00:08:09.593Z,64.29
2022-08-26T00:13:14.736Z,63.65
2022-08-26T00:18:22.282Z,64.55
2022-08-26T00:23:24.622Z,65.16
2022-08-26T00:28:28.596Z,65.90
2022-08-26T00:33:30.328Z,66.70
2022-08-26T00:38:31.990Z,68.77
2022-08-26T00:43:47.477Z,70.67
2022-08-26T00:48:53.724Z,74.05
2022-08-26T00:54:07.618Z,75.88
2022-08-26T00:59:13.829Z,81.44
2022-08-26T01:04:19.397Z,83.97
2022-08-26T01:09:22.283Z,88.16
2022-08-26T01:14:26.451Z,91.76
2022-08-26T01:19:37.748Z,93.88
2022-08-26T01:24:42.708Z,97.19
2022-08-26T01:29:46.970Z,100.00
2022-08-26T01:34:51.963Z,100.00
2022-08-26T01:39:57.463Z,100.00
2022-08-26T01:45:16.754Z,100.00
2022-08-26T01:50:28.057Z,100.00
2022-08-26T01:55:34.152Z,100.00
2022-08-26T02:00:37.574Z,100.00
2022-08-26T02:05:39.474Z,100.00
2022-08-26T02:10:41.375Z,100.00
2022-08-26T02:15:44.505Z,100.00
2022-08-26T02:20:46.681Z,100.00
2022-08-26T02:26:06.949Z,100.00
2022-08-26T02:31:08.720Z,100.00
2022-08-26T02:36:13.383Z,100.00
2022-08-26T02:41:15.460Z,100.00
2022-08-26T02:46:21.491Z,100.00
2022-08-26T02:51:31.506Z,100.00
2022-08-26T02:56:35.346Z,100.00
2022-08-26T03:01:37.268Z,100.00
2022-08-26T03:06:39.284Z,100.00
2022-08-26T03:11:43.147Z,100.00
2022-08-26T03:16:45.347Z,100.00
2022-08-26T03:21:50.818Z,100.00
2022-08-26T03:26:54.051Z,100.00
2022-08-26T03:31:55.856Z,100.00
2022-08-26T03:36:57.467Z,100.00
2022-08-26T03:41:59.642Z,100.00
2022-08-26T03:47:01.218Z,100.00
2022-08-26T03:52:04.556Z,100.00
2022-08-26T03:57:07.276Z,100.00
2022-08-26T04:02:11.576Z,100.00
2022-08-26T04:07:13.554Z,100.00
2022-08-26T04:12:16.641Z,100.00
2022-08-26T04:17:19.190Z,100.00
2022-08-26T04:22:26.725Z,100.00
2022-08-26T04:27:30.989Z,100.00
2022-08-26T04:32:32.674Z,100.00
2022-08-26T04:37:35.576Z,100.00
2022-08-26T04:42:37.276Z,100.00
2022-08-26T04:47:38.985Z,100.00
2022-08-26T04:52:40.700Z,100.00
2022-08-26T04:57:42.588Z,100.00
2022-08-26T05:02:44.245Z,100.00
2022-08-26T05:07:45.792Z,100.00
2022-08-26T05:12:47.882Z,100.00
2022-08-26T05:17:49.574Z,100.00
2022-08-26T05:22:51.324Z,100.00
2022-08-26T05:27:53.153Z,100.00
2022-08-26T05:32:55.511Z,100.00
2022-08-26T05:37:58.309Z,100.00
2022-08-26T05:42:59.953Z,100.00
2022-08-26T05:48:01.942Z,100.00
2022-08-26T05:53:03.951Z,100.00
2022-08-26T05:58:06.084Z,100.00
2022-08-26T06:03:08.091Z,100.00
2022-08-26T06:08:10.008Z,100.00
2022-08-26T06:13:12.865Z,100.00
2022-08-26T06:18:17.331Z,100.00
2022-08-26T06:23:19.255Z,100.00
2022-08-26T06:28:20.855Z,100.00
2022-08-26T06:33:23.926Z,100.00
2022-08-26T06:38:25.500Z,100.00
2022-08-26T06:43:28.395Z,100.00
2022-08-26T06:48:30.429Z,100.00
2022-08-26T06:53:32.013Z,100.00
2022-08-26T06:58:35.429Z,100.00
2022-08-26T07:03:39.526Z,100.00
2022-08-26T07:08:41.499Z,100.00
2022-08-26T07:13:43.851Z,100.00
2022-08-26T07:18:46.604Z,100.00
2022-08-26T07:23:48.828Z,100.00
2022-08-26T07:28:53.484Z,100.00
2022-08-26T07:33:55.294Z,100.00
2022-08-26T07:38:57.350Z,100.00
2022-08-26T07:43:59.108Z,100.00
2022-08-26T07:49:00.758Z,100.00
2022-08-26T07:54:02.549Z,100.00
2022-08-26T07:59:13.709Z,100.00
2022-08-26T08:04:17.310Z,100.00
2022-08-26T08:09:19.663Z,100.00
2022-08-26T08:14:23.884Z,100.00
2022-08-26T08:19:36.867Z,100.00
2022-08-26T08:24:40.944Z,99.37
2022-08-26T08:29:43.272Z,98.86
2022-08-26T08:34:44.870Z,100.00
2022-08-26T08:39:46.461Z,100.00
2022-08-26T08:44:55.498Z,100.00
2022-08-26T08:50:11.523Z,98.76
2022-08-26T08:55:18.038Z,100.00
2022-08-26T09:00:20.716Z,100.00
2022-08-26T09:05:37.787Z,98.13
2022-08-26T09:10:44.247Z,98.58
2022-08-26T09:15:58.128Z,98.03
2022-08-26T09:21:06.303Z,95.43
2022-08-26T09:26:24.791Z,95.97
2022-08-26T09:31:34.194Z,97.47
2022-08-26T09:36:46.600Z,98.38
2022-08-26T09:42:03.093Z,97.72
2022-08-26T09:47:07.141Z,97.50
2022-08-26T09:52:23.778Z,96.88
2022-08-26T09:57:29.476Z,95.54
2022-08-26T10:02:34.062Z,94.36
2022-08-26T10:07:38.451Z,95.13
2022-08-26T10:12:49.227Z,94.24
2022-08-26T10:18:14.092Z,94.29
2022-08-26T10:23:19.782Z,92.90
2022-08-26T10:28:49.447Z,91.08
2022-08-26T10:33:52.537Z,88.37
2022-08-26T10:39:01.426Z,88.89
2022-08-26T10:44:07.934Z,92.93
2022-08-26T10:49:14.341Z,90.96
2022-08-26T10:54:39.243Z,89.53
2022-08-26T10:59:56.040Z,93.23
2022-08-26T11:05:01.641Z,91.54
2022-08-26T11:10:11.253Z,87.62
2022-08-26T11:15:24.499Z,88.57
2022-08-26T11:20:41.886Z,87.99
2022-08-26T11:25:56.063Z,83.36
2022-08-26T11:30:58.720Z,77.81
2022-08-26T11:36:00.591Z,75.53
2022-08-26T11:41:20.839Z,75.50
2022-08-26T11:46:28.857Z,74.11
2022-08-26T11:51:30.421Z,74.70
2022-08-26T11:56:35.906Z,74.88
2022-08-26T12:01:44.445Z,74.04
2022-08-26T12:06:50.059Z,74.47
2022-08-26T12:11:52.727Z,74.37
2022-08-26T12:17:13.623Z,76.81
2022-08-26T12:22:22.879Z,80.09
2022-08-26T12:27:27.928Z,79.68
2022-08-26T12:32:30.444Z,79.70
2022-08-26T12:37:35.270Z,83.19
2022-08-26T12:42:42.138Z,86.13
2022-08-26T12:47:45.881Z,88.29
2022-08-26T12:53:05.430Z,88.63
2022-08-26T12:58:16.068Z,86.14
2022-08-26T13:03:36.121Z,86.07
2022-08-26T13:08:58.514Z,84.59
2022-08-26T13:14:18.427Z,83.34
2022-08-26T13:19:25.585Z,83.56
2022-08-26T13:24:42.428Z,85.92
2022-08-26T13:29:43.981Z,87.61
2022-08-26T13:34:51.422Z,86.21
2022-08-26T13:39:53.593Z,85.02
2022-08-26T13:44:55.173Z,83.27
2022-08-26T13:49:56.755Z,82.61
2022-08-26T13:54:59.625Z,80.41
2022-08-26T14:00:01.171Z,83.08
2022-08-26T14:05:02.775Z,84.23
2022-08-26T14:10:04.708Z,84.30
2022-08-26T14:15:07.568Z,82.82
2022-08-26T14:20:14.010Z,81.22
2022-08-26T14:25:15.690Z,80.20
2022-08-26T14:30:17.779Z,79.69
2022-08-26T14:35:22.580Z,79.50
2022-08-26T14:40:29.145Z,81.32
2022-08-26T14:45:31.100Z,79.17
2022-08-26T14:50:32.752Z,80.56
2022-08-26T14:55:38.112Z,83.82
2022-08-26T15:00:39.691Z,84.99
2022-08-26T15:05:46.074Z,83.80
2022-08-26T15:10:49.459Z,80.77
2022-08-26T15:15:51.131Z,79.80
2022-08-26T15:20:52.783Z,79.65
2022-08-26T15:25:54.443Z,80.56
2022-08-26T15:30:56.087Z,78.52
2022-08-26T15:36:02.963Z,78.90
2022-08-26T15:41:06.422Z,80.29
2022-08-26T15:46:11.180Z,81.49
2022-08-26T15:51:28.060Z,81.55
2022-08-26T15:56:32.942Z,81.48
2022-08-26T16:01:36.111Z,82.59
2022-08-26T16:06:39.687Z,83.04
2022-08-26T16:11:41.239Z,83.83
2022-08-26T16:16:42.847Z,85.04
2022-08-26T16:21:45.202Z,85.83
2022-08-26T16:26:46.789Z,85.81
2022-08-26T16:31:48.376Z,85.57
2022-08-26T16:36:50.235Z,85.88
2022-08-26T16:41:51.869Z,84.42
2022-08-26T16:46:58.537Z,84.63
2022-08-26T16:52:00.401Z,84.12
2022-08-26T16:57:02.726Z,84.16
2022-08-26T17:02:04.460Z,85.08
2022-08-26T17:07:06.129Z,85.56
2022-08-26T17:12:07.898Z,85.44
2022-08-26T17:17:09.466Z,86.07
2022-08-26T17:22:11.630Z,86.31
2022-08-26T17:27:13.274Z,87.42
2022-08-26T17:32:14.893Z,88.04
2022-08-26T17:37:18.477Z,88.25
2022-08-26T17:42:20.061Z,88.38
2022-08-26T17:47:21.744Z,94.34
2022-08-26T17:52:23.567Z,95.48
2022-08-26T17:57:26.202Z,95.52
2022-08-26T18:07:32.893Z,95.79
2022-08-26T18:12:41.080Z,95.52
2022-08-26T18:17:43.078Z,95.16
2022-08-26T18:22:46.383Z,94.29
2022-08-26T18:27:47.931Z,94.78
2022-08-26T18:32:50.633Z,94.54
2022-08-26T18:37:52.222Z,93.77
2022-08-26T18:42:54.121Z,93.06
2022-08-26T18:47:55.989Z,91.33
2022-08-26T18:52:57.741Z,90.72
2022-08-26T18:57:59.415Z,90.86
2022-08-26T19:03:01.272Z,90.78
2022-08-26T19:08:04.074Z,91.16
2022-08-26T19:13:07.611Z,92.12
2022-08-26T19:18:11.409Z,92.20
2022-08-26T19:23:30.929Z,92.22
2022-08-26T19:28:34.425Z,92.11
2022-08-26T19:33:37.574Z,92.56
2022-08-26T19:38:39.309Z,92.53
2022-08-26T19:43:41.202Z,92.72
2022-08-26T19:48:43.636Z,93.31
2022-08-26T19:53:46.829Z,93.11
2022-08-26T19:58:49.587Z,93.54
2022-08-26T20:03:51.376Z,94.20
2022-08-26T20:08:53.875Z,94.06
2022-08-26T20:13:56.732Z,94.66
2022-08-26T20:18:58.626Z,94.64
2022-08-26T20:24:05.335Z,94.66
2022-08-26T20:29:08.966Z,94.60
2022-08-26T20:34:12.160Z,94.48
2022-08-26T20:39:15.318Z,95.32
2022-08-26T20:44:17.233Z,95.10
2022-08-26T20:49:19.859Z,94.48
2022-08-26T20:54:28.014Z,94.33
2022-08-26T20:59:30.391Z,94.60
2022-08-26T21:04:32.058Z,94.13
2022-08-26T21:09:33.760Z,94.30
2022-08-26T21:14:35.381Z,94.28
2022-08-26T21:19:37.725Z,94.40
2022-08-26T21:24:39.593Z,94.35
2022-08-26T21:29:41.430Z,94.29
2022-08-26T21:34:43.275Z,93.94
2022-08-26T21:39:45.219Z,94.77
2022-08-26T21:44:52.663Z,95.08
2022-08-26T21:49:54.701Z,95.44
2022-08-26T21:54:58.240Z,95.60
2022-08-26T22:00:00.508Z,96.08
2022-08-26T22:05:07.501Z,96.84
2022-08-26T22:10:09.414Z,96.97
2022-08-26T22:15:12.229Z,97.70
2022-08-26T22:20:16.624Z,98.00
2022-08-26T22:25:19.152Z,98.99
2022-08-26T22:30:20.832Z,100.00
2022-08-26T22:35:28.979Z,100.00
2022-08-26T22:40:31.342Z,100.00
2022-08-26T22:45:33.456Z,100.00
2022-08-26T22:50:35.436Z,100.00
2022-08-26T22:55:37.777Z,100.00
2022-08-26T23:00:40.066Z,100.00
2022-08-26T23:05:44.984Z,100.00
2022-08-26T23:10:48.339Z,100.00
2022-08-26T23:15:59.127Z,100.00
2022-08-26T23:21:01.094Z,100.00
2022-08-26T23:26:06.190Z,100.00
2022-08-26T23:31:08.435Z,100.00
2022-08-26T23:36:12.650Z,100.00
2022-08-26T23:41:17.507Z,100.00
2022-08-26T23:46:19.480Z,100.00
2022-08-26T23:51:21.517Z,100.00
2022-08-26T23:56:23.515Z,100.00
